sensor_id;sensor_type;location;lat;lon;timestamp;pressure;altitude;pressure_sealevel;temperature
69857;BMP280;57147;53.582;10.112;2022-08-19T00:03:09;101177.75;;;19.17
69857;BMP280;57147;53.582;10.112;2022-08-19T00:08:12;101168.19;;;19.04
69857;BMP280;57147;53.582;10.112;2022-08-19T00:13:13;101150.44;;;19.03
69857;BMP280;57147;53.582;10.112;2022-08-19T00:18:13;101160.28;;;19.11
69857;BMP280;57147;53.582;10.112;2022-08-19T00:23:17;101176.94;;;18.89
69857;BMP280;57147;53.582;10.112;2022-08-19T00:28:17;101184.13;;;18.73
69857;BMP280;57147;53.582;10.112;2022-08-19T00:33:18;101189.28;;;18.78
69857;BMP280;57147;53.582;10.112;2022-08-19T00:38:21;101177.41;;;18.91
69857;BMP280;57147;53.582;10.112;2022-08-19T00:43:24;101172.06;;;19.07
69857;BMP280;57147;53.582;10.112;2022-08-19T00:48:24;101157.88;;;18.94
69857;BMP280;57147;53.582;10.112;2022-08-19T00:53:31;101152.19;;;18.71
69857;BMP280;57147;53.582;10.112;2022-08-19T00:58:34;101156.44;;;18.72
69857;BMP280;57147;53.582;10.112;2022-08-19T01:03:35;101157.00;;;18.78
69857;BMP280;57147;53.582;10.112;2022-08-19T01:08:38;101172.41;;;18.65
69857;BMP280;57147;53.582;10.112;2022-08-19T01:13:39;101160.19;;;18.68
69857;BMP280;57147;53.582;10.112;2022-08-19T01:18:41;101148.09;;;18.50
69857;BMP280;57147;53.582;10.112;2022-08-19T01:23:45;101148.72;;;18.71
69857;BMP280;57147;53.582;10.112;2022-08-19T01:28:48;101154.69;;;18.64
69857;BMP280;57147;53.582;10.112;2022-08-19T01:33:52;101151.63;;;18.78
69857;BMP280;57147;53.582;10.112;2022-08-19T01:38:56;101074.41;;;18.02
69857;BMP280;57147;53.582;10.112;2022-08-19T01:43:57;101147.66;;;18.60
69857;BMP280;57147;53.582;10.112;2022-08-19T01:48:58;101137.78;;;18.64
69857;BMP280;57147;53.582;10.112;2022-08-19T01:54:01;101128.16;;;18.51
69857;BMP280;57147;53.582;10.112;2022-08-19T01:59:05;101118.53;;;18.37
69857;BMP280;57147;53.582;10.112;2022-08-19T02:04:08;101133.75;;;18.45
69857;BMP280;57147;53.582;10.112;2022-08-19T02:09:12;101136.91;;;18.47
69857;BMP280;57147;53.582;10.112;2022-08-19T02:14:12;101069.03;;;18.02
69857;BMP280;57147;53.582;10.112;2022-08-19T02:19:13;101113.59;;;18.39
69857;BMP280;57147;53.582;10.112;2022-08-19T02:24:16;101101.41;;;18.30
69857;BMP280;57147;53.582;10.112;2022-08-19T02:29:17;101116.06;;;18.32
69857;BMP280;57147;53.582;10.112;2022-08-19T02:34:17;101126.16;;;18.35
69857;BMP280;57147;53.582;10.112;2022-08-19T02:39:21;101108.44;;;18.34
69857;BMP280;57147;53.582;10.112;2022-08-19T02:44:21;101111.78;;;18.56
69857;BMP280;57147;53.582;10.112;2022-08-19T02:49:22;101110.78;;;18.36
69857;BMP280;57147;53.582;10.112;2022-08-19T02:54:25;101124.34;;;18.27
69857;BMP280;57147;53.582;10.112;2022-08-19T02:59:30;101128.59;;;18.40
69857;BMP280;57147;53.582;10.112;2022-08-19T03:04:32;101117.84;;;18.40
69857;BMP280;57147;53.582;10.112;2022-08-19T03:09:38;101119.09;;;18.43
69857;BMP280;57147;53.582;10.112;2022-08-19T03:14:39;101124.91;;;18.21
69857;BMP280;57147;53.582;10.112;2022-08-19T03:19:41;101125.03;;;18.24
69857;BMP280;57147;53.582;10.112;2022-08-19T03:24:45;101122.34;;;18.12
69857;BMP280;57147;53.582;10.112;2022-08-19T03:29:45;101130.63;;;18.07
69857;BMP280;57147;53.582;10.112;2022-08-19T03:34:46;101126.25;;;18.15
69857;BMP280;57147;53.582;10.112;2022-08-19T03:39:49;101059.16;;;17.70
69857;BMP280;57147;53.582;10.112;2022-08-19T03:44:50;101131.88;;;18.22
69857;BMP280;57147;53.582;10.112;2022-08-19T03:49:50;101134.72;;;18.05
69857;BMP280;57147;53.582;10.112;2022-08-19T03:55:00;101174.69;;;17.94
69857;BMP280;57147;53.582;10.112;2022-08-19T04:00:00;101168.00;;;18.00
69857;BMP280;57147;53.582;10.112;2022-08-19T04:05:02;101168.66;;;17.97
69857;BMP280;57147;53.582;10.112;2022-08-19T04:10:06;101172.44;;;17.96
69857;BMP280;57147;53.582;10.112;2022-08-19T04:15:08;101166.66;;;18.06
69857;BMP280;57147;53.582;10.112;2022-08-19T04:20:09;101152.34;;;18.14
69857;BMP280;57147;53.582;10.112;2022-08-19T04:25:13;101179.94;;;18.47
69857;BMP280;57147;53.582;10.112;2022-08-19T04:30:14;101172.19;;;18.58
69857;BMP280;57147;53.582;10.112;2022-08-19T04:35:15;101185.31;;;18.35
69857;BMP280;57147;53.582;10.112;2022-08-19T04:40:18;101197.13;;;18.10
69857;BMP280;57147;53.582;10.112;2022-08-19T04:45:19;101188.81;;;18.03
69857;BMP280;57147;53.582;10.112;2022-08-19T04:50:20;101176.09;;;18.12
69857;BMP280;57147;53.582;10.112;2022-08-19T04:55:26;101156.22;;;17.92
69857;BMP280;57147;53.582;10.112;2022-08-19T05:00:27;101189.63;;;18.04
69857;BMP280;57147;53.582;10.112;2022-08-19T05:05:27;101191.22;;;18.17
69857;BMP280;57147;53.582;10.112;2022-08-19T05:10:31;101194.44;;;18.10
69857;BMP280;57147;53.582;10.112;2022-08-19T05:15:32;101212.81;;;18.08
69857;BMP280;57147;53.582;10.112;2022-08-19T05:20:34;101214.13;;;18.02
69857;BMP280;57147;53.582;10.112;2022-08-19T05:25:46;101181.06;;;17.89
69857;BMP280;57147;53.582;10.112;2022-08-19T05:30:47;101224.03;;;18.22
69857;BMP280;57147;53.582;10.112;2022-08-19T05:41:19;101222.47;;;18.21
69857;BMP280;57147;53.582;10.112;2022-08-19T05:46:20;101214.59;;;18.16
69857;BMP280;57147;53.582;10.112;2022-08-19T05:51:21;101206.53;;;18.16
69857;BMP280;57147;53.582;10.112;2022-08-19T05:56:24;101204.66;;;18.41
69857;BMP280;57147;53.582;10.112;2022-08-19T06:01:26;101142.25;;;18.11
69857;BMP280;57147;53.582;10.112;2022-08-19T06:06:27;101198.84;;;18.51
69857;BMP280;57147;53.582;10.112;2022-08-19T06:11:36;101190.78;;;18.63
69857;BMP280;57147;53.582;10.112;2022-08-19T06:16:39;101196.94;;;18.64
69857;BMP280;57147;53.582;10.112;2022-08-19T06:21:42;101198.72;;;18.72
69857;BMP280;57147;53.582;10.112;2022-08-19T06:26:48;101197.38;;;18.78
69857;BMP280;57147;53.582;10.112;2022-08-19T06:31:51;101196.91;;;18.76
69857;BMP280;57147;53.582;10.112;2022-08-19T06:36:52;101198.25;;;18.82
69857;BMP280;57147;53.582;10.112;2022-08-19T06:41:57;101189.72;;;18.80
69857;BMP280;57147;53.582;10.112;2022-08-19T06:47:00;101183.56;;;18.79
69857;BMP280;57147;53.582;10.112;2022-08-19T06:52:02;101178.41;;;18.86
69857;BMP280;57147;53.582;10.112;2022-08-19T06:57:06;101196.69;;;18.81
69857;BMP280;57147;53.582;10.112;2022-08-19T07:02:07;101189.72;;;18.80
69857;BMP280;57147;53.582;10.112;2022-08-19T07:07:12;101198.03;;;18.87
69857;BMP280;57147;53.582;10.112;2022-08-19T07:12:16;101157.06;;;18.41
69857;BMP280;57147;53.582;10.112;2022-08-19T07:17:16;101187.31;;;18.63
69857;BMP280;57147;53.582;10.112;2022-08-19T07:22:17;101192.06;;;18.93
69857;BMP280;57147;53.582;10.112;2022-08-19T07:27:21;101192.19;;;18.85
69857;BMP280;57147;53.582;10.112;2022-08-19T07:32:23;101185.66;;;18.98
69857;BMP280;57147;53.582;10.112;2022-08-19T07:37:24;101194.16;;;19.12
69857;BMP280;57147;53.582;10.112;2022-08-19T07:42:27;101199.28;;;19.17
69857;BMP280;57147;53.582;10.112;2022-08-19T07:47:28;101215.06;;;18.91
69857;BMP280;57147;53.582;10.112;2022-08-19T07:52:29;101189.97;;;18.87
69857;BMP280;57147;53.582;10.112;2022-08-19T07:57:32;101246.34;;;18.96
69857;BMP280;57147;53.582;10.112;2022-08-19T08:02:33;101241.84;;;19.12
69857;BMP280;57147;53.582;10.112;2022-08-19T08:07:33;101215.75;;;18.76
69857;BMP280;57147;53.582;10.112;2022-08-19T08:12:39;101239.28;;;19.03
69857;BMP280;57147;53.582;10.112;2022-08-19T08:17:40;101253.03;;;19.14
69857;BMP280;57147;53.582;10.112;2022-08-19T08:22:43;101247.13;;;19.08
69857;BMP280;57147;53.582;10.112;2022-08-19T08:27:46;101261.22;;;19.05
69857;BMP280;57147;53.582;10.112;2022-08-19T08:32:47;101261.13;;;19.54
69857;BMP280;57147;53.582;10.112;2022-08-19T08:37:49;101259.78;;;19.48
69857;BMP280;57147;53.582;10.112;2022-08-19T08:42:55;101247.66;;;19.54
69857;BMP280;57147;53.582;10.112;2022-08-19T08:48:00;101212.78;;;19.05
69857;BMP280;57147;53.582;10.112;2022-08-19T08:53:04;101258.97;;;19.19
69857;BMP280;57147;53.582;10.112;2022-08-19T08:58:12;101266.78;;;19.36
69857;BMP280;57147;53.582;10.112;2022-08-19T09:03:18;101250.09;;;19.31
69857;BMP280;57147;53.582;10.112;2022-08-19T09:08:28;101266.44;;;19.66
69857;BMP280;57147;53.582;10.112;2022-08-19T09:13:39;101258.38;;;19.38
69857;BMP280;57147;53.582;10.112;2022-08-19T09:18:43;101281.97;;;19.17
69857;BMP280;57147;53.582;10.112;2022-08-19T09:23:44;101286.22;;;19.18
69857;BMP280;57147;53.582;10.112;2022-08-19T09:28:52;101282.06;;;19.32
69857;BMP280;57147;53.582;10.112;2022-08-19T09:33:54;101280.81;;;19.42
69857;BMP280;57147;53.582;10.112;2022-08-19T09:38:55;101244.69;;;19.31
69857;BMP280;57147;53.582;10.112;2022-08-19T09:43:59;101273.78;;;19.25
69857;BMP280;57147;53.582;10.112;2022-08-19T09:49:00;101278.72;;;19.23
69857;BMP280;57147;53.582;10.112;2022-08-19T09:54:02;101257.25;;;19.39
69857;BMP280;57147;53.582;10.112;2022-08-19T09:59:06;101262.00;;;19.58
69857;BMP280;57147;53.582;10.112;2022-08-19T10:04:06;101241.75;;;19.64
69857;BMP280;57147;53.582;10.112;2022-08-19T10:09:08;101260.88;;;20.02
69857;BMP280;57147;53.582;10.112;2022-08-19T10:14:12;101261.84;;;20.10
69857;BMP280;57147;53.582;10.112;2022-08-19T10:19:12;101261.84;;;20.10
69857;BMP280;57147;53.582;10.112;2022-08-19T10:24:13;101263.47;;;19.83
69857;BMP280;57147;53.582;10.112;2022-08-19T10:29:16;101272.16;;;19.92
69857;BMP280;57147;53.582;10.112;2022-08-19T10:34:17;101274.72;;;19.73
69857;BMP280;57147;53.582;10.112;2022-08-19T10:39:17;101257.56;;;19.65
69857;BMP280;57147;53.582;10.112;2022-08-19T10:44:21;101273.59;;;19.74
69857;BMP280;57147;53.582;10.112;2022-08-19T10:49:21;101277.47;;;19.61
69857;BMP280;57147;53.582;10.112;2022-08-19T10:54:22;101270.72;;;19.67
69857;BMP280;57147;53.582;10.112;2022-08-19T10:59:28;101240.31;;;19.82
69857;BMP280;57147;53.582;10.112;2022-08-19T11:04:29;101258.81;;;20.11
69857;BMP280;57147;53.582;10.112;2022-08-19T11:09:29;101254.66;;;20.29
69857;BMP280;57147;53.582;10.112;2022-08-19T11:14:34;101250.66;;;20.23
69857;BMP280;57147;53.582;10.112;2022-08-19T11:19:34;101258.75;;;20.23
69857;BMP280;57147;53.582;10.112;2022-08-19T11:24:36;101256.63;;;20.17
69857;BMP280;57147;53.582;10.112;2022-08-19T11:29:40;101261.44;;;20.23
69857;BMP280;57147;53.582;10.112;2022-08-19T11:34:41;101272.78;;;20.01
69857;BMP280;57147;53.582;10.112;2022-08-19T11:39:41;101243.06;;;19.98
69857;BMP280;57147;53.582;10.112;2022-08-19T11:44:44;101248.44;;;20.45
69857;BMP280;57147;53.582;10.112;2022-08-19T11:49:45;101233.59;;;20.85
69857;BMP280;57147;53.582;10.112;2022-08-19T11:54:46;101243.56;;;21.20
69857;BMP280;57147;53.582;10.112;2022-08-19T11:59:52;101241.91;;;20.46
69857;BMP280;57147;53.582;10.112;2022-08-19T12:04:53;101240.78;;;20.97
69857;BMP280;57147;53.582;10.112;2022-08-19T12:09:53;101248.66;;;21.63
69857;BMP280;57147;53.582;10.112;2022-08-19T12:14:58;101245.03;;;21.56
69857;BMP280;57147;53.582;10.112;2022-08-19T12:20:00;101242.84;;;21.23
69857;BMP280;57147;53.582;10.112;2022-08-19T12:25:00;101242.13;;;21.26
69857;BMP280;57147;53.582;10.112;2022-08-19T12:30:05;101239.56;;;21.52
69857;BMP280;57147;53.582;10.112;2022-08-19T12:35:08;101243.09;;;21.56
69857;BMP280;57147;53.582;10.112;2022-08-19T12:40:10;101222.03;;;21.65
69857;BMP280;57147;53.582;10.112;2022-08-19T12:45:15;101228.78;;;21.98
69857;BMP280;57147;53.582;10.112;2022-08-19T12:50:16;101230.81;;;22.30
69857;BMP280;57147;53.582;10.112;2022-08-19T12:55:17;101233.66;;;22.38
69857;BMP280;57147;53.582;10.112;2022-08-19T13:00:21;101231.09;;;22.48
69857;BMP280;57147;53.582;10.112;2022-08-19T13:05:24;101224.22;;;22.54
69857;BMP280;57147;53.582;10.112;2022-08-19T13:10:30;101228.13;;;22.57
69857;BMP280;57147;53.582;10.112;2022-08-19T13:15:35;101217.09;;;22.43
69857;BMP280;57147;53.582;10.112;2022-08-19T13:20:37;101208.41;;;22.86
69857;BMP280;57147;53.582;10.112;2022-08-19T13:25:38;101196.47;;;23.27
69857;BMP280;57147;53.582;10.112;2022-08-19T13:30:41;101201.66;;;23.06
69857;BMP280;57147;53.582;10.112;2022-08-19T13:35:45;101198.34;;;23.23
69857;BMP280;57147;53.582;10.112;2022-08-19T13:40:46;101186.28;;;23.54
69857;BMP280;57147;53.582;10.112;2022-08-19T13:45:50;101174.72;;;24.15
69857;BMP280;57147;53.582;10.112;2022-08-19T13:50:51;101183.41;;;23.36
69857;BMP280;57147;53.582;10.112;2022-08-19T13:55:53;101193.72;;;22.87
69857;BMP280;57147;53.582;10.112;2022-08-19T14:00:56;101195.84;;;23.04
69857;BMP280;57147;53.582;10.112;2022-08-19T14:05:57;101201.97;;;23.34
69857;BMP280;57147;53.582;10.112;2022-08-19T14:10:58;101196.84;;;22.89
69857;BMP280;57147;53.582;10.112;2022-08-19T14:16:06;101171.94;;;23.13
69857;BMP280;57147;53.582;10.112;2022-08-19T14:21:14;101173.22;;;23.23
69857;BMP280;57147;53.582;10.112;2022-08-19T14:26:16;101188.50;;;23.05
69857;BMP280;57147;53.582;10.112;2022-08-19T14:31:21;101185.41;;;23.06
69857;BMP280;57147;53.582;10.112;2022-08-19T14:36:21;101187.16;;;22.88
69857;BMP280;57147;53.582;10.112;2022-08-19T14:41:23;101190.94;;;22.80
69857;BMP280;57147;53.582;10.112;2022-08-19T14:46:27;101183.88;;;22.46
69857;BMP280;57147;53.582;10.112;2022-08-19T14:51:29;101191.09;;;22.08
69857;BMP280;57147;53.582;10.112;2022-08-19T14:56:30;101189.53;;;22.07
69857;BMP280;57147;53.582;10.112;2022-08-19T15:01:34;101200.25;;;22.26
69857;BMP280;57147;53.582;10.112;2022-08-19T15:06:34;101205.66;;;22.26
69857;BMP280;57147;53.582;10.112;2022-08-19T15:11:35;101212.50;;;22.47
69857;BMP280;57147;53.582;10.112;2022-08-19T15:16:39;101204.91;;;22.56
69857;BMP280;57147;53.582;10.112;2022-08-19T15:21:39;101206.06;;;22.84
69857;BMP280;57147;53.582;10.112;2022-08-19T15:26:40;101211.03;;;22.79
69857;BMP280;57147;53.582;10.112;2022-08-19T15:31:43;101201.38;;;22.81
69857;BMP280;57147;53.582;10.112;2022-08-19T15:36:44;101207.06;;;22.43
69857;BMP280;57147;53.582;10.112;2022-08-19T15:41:45;101216.34;;;22.72
69857;BMP280;57147;53.582;10.112;2022-08-19T15:46:49;101191.38;;;22.56
69857;BMP280;57147;53.582;10.112;2022-08-19T15:51:50;101193.22;;;22.48
69857;BMP280;57147;53.582;10.112;2022-08-19T15:56:51;101221.88;;;23.12
69857;BMP280;57147;53.582;10.112;2022-08-19T16:01:55;101133.16;;;22.69
69857;BMP280;57147;53.582;10.112;2022-08-19T16:06:58;101200.50;;;23.84
69857;BMP280;57147;53.582;10.112;2022-08-19T16:12:01;101198.00;;;24.23
69857;BMP280;57147;53.582;10.112;2022-08-19T16:17:05;101204.63;;;24.22
69857;BMP280;57147;53.582;10.112;2022-08-19T16:22:06;101111.13;;;24.09
69857;BMP280;57147;53.582;10.112;2022-08-19T16:27:06;101194.41;;;24.88
69857;BMP280;57147;53.582;10.112;2022-08-19T16:32:10;101182.03;;;25.05
69857;BMP280;57147;53.582;10.112;2022-08-19T16:37:12;101175.78;;;24.90
69857;BMP280;57147;53.582;10.112;2022-08-19T16:42:13;101196.31;;;24.77
69857;BMP280;57147;53.582;10.112;2022-08-19T16:47:16;101203.78;;;25.08
69857;BMP280;57147;53.582;10.112;2022-08-19T16:52:18;101203.09;;;25.54
69857;BMP280;57147;53.582;10.112;2022-08-19T16:57:18;101198.31;;;24.94
69857;BMP280;57147;53.582;10.112;2022-08-19T17:02:22;101180.41;;;24.65
69857;BMP280;57147;53.582;10.112;2022-08-19T17:07:22;101201.41;;;25.00
69857;BMP280;57147;53.582;10.112;2022-08-19T17:12:23;101188.31;;;25.40
69857;BMP280;57147;53.582;10.112;2022-08-19T17:17:26;101199.94;;;25.73
69857;BMP280;57147;53.582;10.112;2022-08-19T17:22:27;101186.00;;;25.57
69857;BMP280;57147;53.582;10.112;2022-08-19T17:27:28;101191.41;;;25.42
69857;BMP280;57147;53.582;10.112;2022-08-19T17:32:31;101200.59;;;24.78
69857;BMP280;57147;53.582;10.112;2022-08-19T17:37:32;101199.47;;;24.10
69857;BMP280;57147;53.582;10.112;2022-08-19T17:42:33;101203.38;;;23.62
69857;BMP280;57147;53.582;10.112;2022-08-19T17:47:37;101207.84;;;23.84
69857;BMP280;57147;53.582;10.112;2022-08-19T17:52:38;101210.72;;;23.58
69857;BMP280;57147;53.582;10.112;2022-08-19T17:57:39;101200.06;;;22.98
69857;BMP280;57147;53.582;10.112;2022-08-19T18:02:51;101191.28;;;22.49
69857;BMP280;57147;53.582;10.112;2022-08-19T18:07:52;101203.38;;;22.55
69857;BMP280;57147;53.582;10.112;2022-08-19T18:18:09;101204.09;;;21.99
69857;BMP280;57147;53.582;10.112;2022-08-19T18:23:09;101205.59;;;21.74
69857;BMP280;57147;53.582;10.112;2022-08-19T18:28:10;101205.88;;;21.69
69857;BMP280;57147;53.582;10.112;2022-08-19T18:33:13;101201.13;;;21.62
69857;BMP280;57147;53.582;10.112;2022-08-19T18:38:15;101208.78;;;21.38
69857;BMP280;57147;53.582;10.112;2022-08-19T18:43:16;101206.28;;;21.25
69857;BMP280;57147;53.582;10.112;2022-08-19T18:48:19;101190.88;;;21.10
69857;BMP280;57147;53.582;10.112;2022-08-19T18:53:20;101180.13;;;20.91
69857;BMP280;57147;53.582;10.112;2022-08-19T18:58:21;101182.38;;;20.89
69857;BMP280;57147;53.582;10.112;2022-08-19T19:03:24;101197.84;;;20.92
69857;BMP280;57147;53.582;10.112;2022-08-19T19:08:25;101198.09;;;20.68
69857;BMP280;57147;53.582;10.112;2022-08-19T19:13:26;101197.38;;;20.52
69857;BMP280;57147;53.582;10.112;2022-08-19T19:18:29;101221.19;;;20.50
69857;BMP280;57147;53.582;10.112;2022-08-19T19:23:30;101225.31;;;20.28
69857;BMP280;57147;53.582;10.112;2022-08-19T19:28:32;101226.47;;;20.11
69857;BMP280;57147;53.582;10.112;2022-08-19T19:33:35;101229.25;;;19.99
69857;BMP280;57147;53.582;10.112;2022-08-19T19:38:35;101234.69;;;19.87
69857;BMP280;57147;53.582;10.112;2022-08-19T19:43:36;101237.88;;;19.77
69857;BMP280;57147;53.582;10.112;2022-08-19T19:48:39;101237.69;;;19.70
69857;BMP280;57147;53.582;10.112;2022-08-19T19:53:40;101240.06;;;19.59
69857;BMP280;57147;53.582;10.112;2022-08-19T19:58:41;101225.72;;;19.39
69857;BMP280;57147;53.582;10.112;2022-08-19T20:03:44;101249.84;;;19.36
69857;BMP280;57147;53.582;10.112;2022-08-19T20:08:45;101256.72;;;19.33
69857;BMP280;57147;53.582;10.112;2022-08-19T20:13:46;101259.41;;;19.21
69857;BMP280;57147;53.582;10.112;2022-08-19T20:18:49;101277.34;;;19.17
69857;BMP280;57147;53.582;10.112;2022-08-19T20:23:49;101279.84;;;19.10
69857;BMP280;57147;53.582;10.112;2022-08-19T20:28:50;101304.06;;;18.98
69857;BMP280;57147;53.582;10.112;2022-08-19T20:33:53;101305.66;;;18.87
69857;BMP280;57147;53.582;10.112;2022-08-19T20:38:54;101307.56;;;18.86
69857;BMP280;57147;53.582;10.112;2022-08-19T20:43:55;101284.50;;;18.61
69857;BMP280;57147;53.582;10.112;2022-08-19T20:48:58;101292.56;;;18.61
69857;BMP280;57147;53.582;10.112;2022-08-19T20:53:59;101310.81;;;18.68
69857;BMP280;57147;53.582;10.112;2022-08-19T20:58:59;101314.41;;;18.60
69857;BMP280;57147;53.582;10.112;2022-08-19T21:04:03;101310.00;;;18.55
69857;BMP280;57147;53.582;10.112;2022-08-19T21:09:03;101314.81;;;18.50
69857;BMP280;57147;53.582;10.112;2022-08-19T21:14:05;101307.75;;;18.45
69857;BMP280;57147;53.582;10.112;2022-08-19T21:19:08;101313.69;;;18.38
69857;BMP280;57147;53.582;10.112;2022-08-19T21:24:09;101305.81;;;18.33
69857;BMP280;57147;53.582;10.112;2022-08-19T21:29:09;101305.72;;;18.42
69857;BMP280;57147;53.582;10.112;2022-08-19T21:34:13;101293.38;;;18.29
69857;BMP280;57147;53.582;10.112;2022-08-19T21:39:13;101315.66;;;18.29
69857;BMP280;57147;53.582;10.112;2022-08-19T21:44:14;101300.84;;;18.23
69857;BMP280;57147;53.582;10.112;2022-08-19T21:49:17;101303.50;;;18.11
69857;BMP280;57147;53.582;10.112;2022-08-19T21:54:18;101314.50;;;18.18
69857;BMP280;57147;53.582;10.112;2022-08-19T21:59:19;101295.91;;;18.13
69857;BMP280;57147;53.582;10.112;2022-08-19T22:04:22;101301.94;;;18.10
69857;BMP280;57147;53.582;10.112;2022-08-19T22:09:22;101289.59;;;18.09
69857;BMP280;57147;53.582;10.112;2022-08-19T22:14:23;101300.09;;;18.02
69857;BMP280;57147;53.582;10.112;2022-08-19T22:19:27;101271.72;;;17.80
69857;BMP280;57147;53.582;10.112;2022-08-19T22:24:27;101306.94;;;17.99
69857;BMP280;57147;53.582;10.112;2022-08-19T22:29:29;101310.63;;;17.95
69857;BMP280;57147;53.582;10.112;2022-08-19T22:34:32;101318.47;;;18.00
69857;BMP280;57147;53.582;10.112;2022-08-19T22:39:33;101318.59;;;18.04
69857;BMP280;57147;53.582;10.112;2022-08-19T22:44:34;101316.22;;;18.02
69857;BMP280;57147;53.582;10.112;2022-08-19T22:49:37;101289.03;;;17.71
69857;BMP280;57147;53.582;10.112;2022-08-19T22:54:37;101315.06;;;17.91
69857;BMP280;57147;53.582;10.112;2022-08-19T22:59:38;101320.16;;;17.84
69857;BMP280;57147;53.582;10.112;2022-08-19T23:04:42;101323.75;;;17.76
69857;BMP280;57147;53.582;10.112;2022-08-19T23:09:42;101310.75;;;17.78
69857;BMP280;57147;53.582;10.112;2022-08-19T23:14:43;101304.63;;;17.77
69857;BMP280;57147;53.582;10.112;2022-08-19T23:19:46;101313.19;;;17.71
69857;BMP280;57147;53.582;10.112;2022-08-19T23:24:47;101321.00;;;17.64
69857;BMP280;57147;53.582;10.112;2022-08-19T23:29:48;101303.56;;;17.70
69857;BMP280;57147;53.582;10.112;2022-08-19T23:34:51;101299.25;;;17.77
69857;BMP280;57147;53.582;10.112;2022-08-19T23:39:54;101295.59;;;17.82
69857;BMP280;57147;53.582;10.112;2022-08-19T23:44:59;101296.78;;;17.84
69857;BMP280;57147;53.582;10.112;2022-08-19T23:50:04;101288.84;;;17.88
69857;BMP280;57147;53.582;10.112;2022-08-19T23:55:05;101292.53;;;18.04
